Time,TemperatureF,DewpointF,PressureIn,WindDirection,WindDirectionDegrees,WindSpeedMPH,WindSpeedGustMPH,Humidity,HourlyPrecipIn,Conditions,Clouds,dailyrainin,SoftwareType,DateUTC
2013-04-25 00:01:00,50.3,44.7,30.02,SSW,207,0.0,3.0,81,0.00,,---,0.15,VWS V14.01,2013-04-25 04:01:00,
2013-04-25 00:03:00,50.1,44.5,30.02,NW,326,2.0,3.0,81,0.00,,---,0.00,VWS V14.01,2013-04-25 04:03:00,
2013-04-25 00:08:00,50.0,43.1,30.01,WNW,289,0.0,3.0,77,0.00,,---,0.00,VWS V14.01,2013-04-25 04:08:00,
2013-04-25 00:13:00,49.9,42.7,30.02,North,11,0.0,3.0,76,0.00,,---,0.00,VWS V14.01,2013-04-25 04:13:00,
2013-04-25 00:18:00,49.7,42.8,30.02,NE,49,1.0,1.0,77,0.00,,---,0.00,VWS V14.01,2013-04-25 04:18:00,
2013-04-25 00:23:00,49.5,42.6,30.02,North,349,2.0,5.0,77,0.00,,---,0.00,VWS V14.01,2013-04-25 04:23:00,
2013-04-25 00:28:00,49.3,42.4,30.03,SW,232,1.0,3.0,77,0.00,,---,0.00,VWS V14.01,2013-04-25 04:28:00,
2013-04-25 00:34:00,49.2,41.6,30.04,ENE,69,0.0,0.0,75,0.00,,---,0.00,VWS V14.01,2013-04-25 04:34:00,
2013-04-25 00:39:00,49.1,40.8,30.04,West,262,1.0,1.0,73,0.00,,---,0.00,VWS V14.01,2013-04-25 04:39:00,
2013-04-25 00:44:00,48.8,40.9,30.03,NW,308,0.0,2.0,74,0.00,,---,0.00,VWS V14.01,2013-04-25 04:44:00,
2013-04-25 00:49:00,48.5,40.2,30.03,WSW,242,0.0,2.0,73,0.00,,---,0.00,VWS V14.01,2013-04-25 04:49:00,
2013-04-25 00:54:00,48.2,40.3,30.05,WSW,242,0.0,0.0,74,0.00,,---,0.00,VWS V14.01,2013-04-25 04:54:00,
2013-04-25 00:59:00,47.8,41.0,30.05,SSE,158,0.0,1.0,77,0.00,,---,0.00,VWS V14.01,2013-04-25 04:59:00,
2013-04-25 01:04:00,47.4,40.9,30.06,NNE,14,0.0,3.0,78,0.00,,---,0.00,VWS V14.01,2013-04-25 05:04:00,
2013-04-25 01:09:00,47.0,40.8,30.07,NNW,342,0.0,2.0,79,0.00,,---,0.00,VWS V14.01,2013-04-25 05:09:00,
2013-04-25 01:15:00,46.6,40.8,30.07,NW,321,1.0,1.0,80,0.00,,---,0.00,VWS V14.01,2013-04-25 05:15:00,
2013-04-25 01:20:00,46.2,39.4,30.06,SSW,205,0.0,3.0,77,0.00,,---,0.00,VWS V14.01,2013-04-25 05:20:00,
2013-04-25 01:25:00,45.9,38.4,30.06,SSE,148,1.0,6.0,75,0.00,,---,0.00,VWS V14.01,2013-04-25 05:25:00,
2013-04-25 01:30:00,45.7,38.2,30.07,WNW,300,0.0,2.0,75,0.00,,---,0.00,VWS V14.01,2013-04-25 05:30:00,
2013-04-25 01:35:00,45.5,38.0,30.06,WSW,242,0.0,2.0,75,0.00,,---,0.00,VWS V14.01,2013-04-25 05:35:00,
2013-04-25 01:40:00,45.2,38.1,30.07,NW,310,0.0,1.0,76,0.00,,---,0.00,VWS V14.01,2013-04-25 05:40:00,
2013-04-25 01:45:00,44.9,36.8,30.07,NNW,340,0.0,2.0,73,0.00,,---,0.00,VWS V14.01,2013-04-25 05:45:00,
2013-04-25 01:51:00,44.7,36.6,30.08,NNW,342,0.0,0.0,73,0.00,,---,0.00,VWS V14.01,2013-04-25 05:51:00,
2013-04-25 01:56:00,44.5,36.0,30.09,NW,304,0.0,1.0,72,0.00,,---,0.00,VWS V14.01,2013-04-25 05:56:00,
2013-04-25 02:01:00,44.5,36.0,30.09,NNE,28,1.0,4.0,72,0.00,,---,0.00,VWS V14.01,2013-04-25 06:01:00,
2013-04-25 02:06:00,44.3,36.2,30.08,North,3,2.0,2.0,73,0.00,,---,0.00,VWS V14.01,2013-04-25 06:06:00,
2013-04-25 02:11:00,44.2,37.1,30.08,NW,319,0.0,0.0,76,0.00,,---,0.00,VWS V14.01,2013-04-25 06:11:00,
2013-04-25 02:16:00,44.0,35.6,30.09,West,281,0.0,2.0,72,0.00,,---,0.00,VWS V14.01,2013-04-25 06:16:00,
2013-04-25 02:21:00,44.0,35.9,30.10,SSW,211,0.0,0.0,73,0.00,,---,0.00,VWS V14.01,2013-04-25 06:21:00,
2013-04-25 02:26:00,43.8,35.7,30.10,NW,316,1.0,1.0,73,0.00,,---,0.00,VWS V14.01,2013-04-25 06:26:00,
2013-04-25 02:31:00,43.5,35.1,30.09,WSW,257,0.0,0.0,72,0.00,,---,0.00,VWS V14.01,2013-04-25 06:31:00,
2013-04-25 02:36:00,43.2,34.5,30.09,WNW,286,2.0,5.0,71,0.00,,---,0.00,VWS V14.01,2013-04-25 06:36:00,
2013-04-25 02:41:00,43.0,33.9,30.09,WNW,295,0.0,2.0,70,0.00,,---,0.00,VWS V14.01,2013-04-25 06:41:00,
2013-04-25 02:46:00,42.7,34.7,30.09,NW,323,0.0,1.0,73,0.00,,---,0.00,VWS V14.01,2013-04-25 06:46:00,
2013-04-25 02:51:00,42.3,33.9,30.09,WNW,295,0.0,2.0,72,0.00,,---,0.00,VWS V14.01,2013-04-25 06:51:00,
2013-04-25 02:56:00,42.0,34.3,30.09,West,271,0.0,2.0,74,0.00,,---,0.00,VWS V14.01,2013-04-25 06:56:00,
2013-04-25 03:01:00,41.9,34.2,30.10,WNW,295,0.0,1.0,74,0.00,,---,0.00,VWS V14.01,2013-04-25 07:01:00,
2013-04-25 03:06:00,41.7,34.0,30.09,West,267,0.0,4.0,74,0.00,,---,0.00,VWS V14.01,2013-04-25 07:06:00,
2013-04-25 03:12:00,41.6,33.9,30.09,NNE,15,2.0,2.0,74,0.00,,---,0.00,VWS V14.01,2013-04-25 07:12:00,
2013-04-25 03:17:00,41.5,33.8,30.09,NW,320,1.0,1.0,74,0.00,,---,0.00,VWS V14.01,2013-04-25 07:17:00,
2013-04-25 03:22:00,41.3,33.7,30.09,NW,322,0.0,2.0,74,0.00,,---,0.00,VWS V14.01,2013-04-25 07:22:00,
2013-04-25 03:27:00,41.2,33.5,30.09,NNW,347,1.0,1.0,74,0.00,,---,0.00,VWS V14.01,2013-04-25 07:27:00,
2013-04-25 03:32:00,41.1,33.8,30.09,NE,47,0.0,2.0,75,0.00,,---,0.00,VWS V14.01,2013-04-25 07:32:00,
2013-04-25 03:37:00,41.0,33.4,30.10,NNE,13,2.0,2.0,74,0.00,,---,0.00,VWS V14.01,2013-04-25 07:37:00,
2013-04-25 03:42:00,40.9,33.6,30.10,West,263,0.0,0.0,75,0.00,,---,0.00,VWS V14.01,2013-04-25 07:42:00,
2013-04-25 03:48:00,40.7,33.7,30.11,WNW,293,0.0,1.0,76,0.00,,---,0.00,VWS V14.01,2013-04-25 07:48:00,
2013-04-25 03:53:00,40.7,33.4,30.11,NNW,334,1.0,1.0,75,0.00,,---,0.00,VWS V14.01,2013-04-25 07:53:00,
2013-04-25 03:58:00,40.6,34.3,30.11,WNW,294,0.0,0.0,78,0.00,,---,0.00,VWS V14.01,2013-04-25 07:58:00,
2013-04-25 04:03:00,40.4,33.5,30.12,West,276,0.0,0.0,76,0.00,,---,0.00,VWS V14.01,2013-04-25 08:03:00,
2013-04-25 04:08:00,40.4,33.1,30.12,North,351,0.0,0.0,75,0.00,,---,0.00,VWS V14.01,2013-04-25 08:08:00,
2013-04-25 04:14:00,40.2,34.2,30.13,SW,229,0.0,0.0,79,0.00,,---,0.00,VWS V14.01,2013-04-25 08:14:00,
2013-04-25 04:19:00,40.0,34.3,30.14,East,84,0.0,1.0,80,0.00,,---,0.00,VWS V14.01,2013-04-25 08:19:00,
2013-04-25 04:24:00,39.8,34.1,30.14,NW,306,0.0,3.0,80,0.00,,---,0.00,VWS V14.01,2013-04-25 08:24:00,
2013-04-25 04:29:00,39.6,33.6,30.14,NE,48,1.0,3.0,79,0.00,,---,0.00,VWS V14.01,2013-04-25 08:29:00,
2013-04-25 04:34:00,39.6,34.6,30.15,NW,320,0.0,0.0,82,0.00,,---,0.00,VWS V14.01,2013-04-25 08:34:00,
2013-04-25 04:39:00,39.4,33.4,30.15,NW,320,0.0,0.0,79,0.00,,---,0.00,VWS V14.01,2013-04-25 08:39:00,
2013-04-25 04:44:00,39.3,32.7,30.15,West,276,0.0,1.0,77,0.00,,---,0.00,VWS V14.01,2013-04-25 08:44:00,
2013-04-25 04:50:00,39.3,33.0,30.15,WNW,300,0.0,0.0,78,0.00,,---,0.00,VWS V14.01,2013-04-25 08:50:00,
2013-04-25 04:55:00,39.3,33.3,30.16,West,267,0.0,2.0,79,0.00,,---,0.00,VWS V14.01,2013-04-25 08:55:00,
2013-04-25 05:00:00,39.2,33.6,30.16,NNW,337,0.0,0.0,80,0.00,,---,0.00,VWS V14.01,2013-04-25 09:00:00,
2013-04-25 05:05:00,39.1,33.2,30.16,NW,321,0.0,1.0,79,0.00,,---,0.00,VWS V14.01,2013-04-25 09:05:00,
2013-04-25 05:10:00,39.2,33.2,30.17,NNW,340,1.0,1.0,79,0.00,,---,0.00,VWS V14.01,2013-04-25 09:10:00,
2013-04-25 05:15:00,39.2,33.6,30.17,West,276,0.0,0.0,80,0.00,,---,0.00,VWS V14.01,2013-04-25 09:15:00,
2013-04-25 05:20:00,39.3,33.7,30.17,West,263,0.0,1.0,80,0.00,,---,0.00,VWS V14.01,2013-04-25 09:20:00,
2013-04-25 05:25:00,39.3,33.7,30.17,West,264,0.0,0.0,80,0.00,,---,0.00,VWS V14.01,2013-04-25 09:25:00,
2013-04-25 05:30:00,39.3,33.7,30.17,NE,53,0.0,0.0,80,0.00,,---,0.00,VWS V14.01,2013-04-25 09:30:00,
2013-04-25 05:35:00,39.3,34.0,30.18,NNW,347,0.0,2.0,81,0.00,,---,0.00,VWS V14.01,2013-04-25 09:35:00,
2013-04-25 05:40:00,39.3,34.0,30.18,NNE,17,0.0,0.0,81,0.00,,---,0.00,VWS V14.01,2013-04-25 09:40:00,
2013-04-25 05:45:00,39.1,33.8,30.18,NW,322,0.0,0.0,81,0.00,,---,0.00,VWS V14.01,2013-04-25 09:45:00,
2013-04-25 05:50:00,39.1,33.5,30.19,NW,323,0.0,0.0,80,0.00,,---,0.00,VWS V14.01,2013-04-25 09:50:00,
2013-04-25 05:56:00,39.1,33.5,30.20,NW,321,0.0,0.0,80,0.00,,---,0.00,VWS V14.01,2013-04-25 09:56:00,
2013-04-25 06:01:00,38.9,33.6,30.20,NNE,17,0.0,0.0,81,0.00,,---,0.00,VWS V14.01,2013-04-25 10:01:00,
2013-04-25 06:06:00,38.8,34.1,30.19,NNE,17,0.0,0.0,83,0.00,,---,0.00,VWS V14.01,2013-04-25 10:06:00,
2013-04-25 06:11:00,38.7,34.0,30.20,NE,34,0.0,0.0,83,0.00,,---,0.00,VWS V14.01,2013-04-25 10:11:00,
2013-04-25 06:16:00,38.7,33.7,30.20,SSE,164,0.0,0.0,82,0.00,,---,0.00,VWS V14.01,2013-04-25 10:16:00,
2013-04-25 06:21:00,38.9,33.3,30.20,West,274,0.0,0.0,80,0.00,,---,0.00,VWS V14.01,2013-04-25 10:21:00,
2013-04-25 06:26:00,39.0,33.0,30.20,West,277,0.0,1.0,79,0.00,,---,0.00,VWS V14.01,2013-04-25 10:26:00,
2013-04-25 06:31:00,39.2,33.2,30.20,West,274,0.0,0.0,79,0.00,,---,0.00,VWS V14.01,2013-04-25 10:31:00,
2013-04-25 06:36:00,39.2,32.6,30.20,West,269,0.0,0.0,77,0.00,,---,0.00,VWS V14.01,2013-04-25 10:36:00,
2013-04-25 06:41:00,39.5,33.2,30.21,NW,325,0.0,1.0,78,0.00,,---,0.00,VWS V14.01,2013-04-25 10:41:00,
2013-04-25 06:46:00,39.6,33.3,30.21,NW,325,0.0,0.0,78,0.00,,---,0.00,VWS V14.01,2013-04-25 10:46:00,
2013-04-25 06:52:00,39.8,33.5,30.21,NW,326,0.0,0.0,78,0.00,,---,0.00,VWS V14.01,2013-04-25 10:52:00,
2013-04-25 06:57:00,40.0,33.7,30.22,North,351,0.0,1.0,78,0.00,,---,0.00,VWS V14.01,2013-04-25 10:57:00,
2013-04-25 07:02:00,40.1,33.5,30.22,NW,305,0.0,0.0,77,0.00,,---,0.00,VWS V14.01,2013-04-25 11:02:00,
2013-04-25 07:07:00,40.3,33.7,30.22,West,269,0.0,1.0,77,0.00,,---,0.00,VWS V14.01,2013-04-25 11:07:00,
2013-04-25 07:12:00,40.2,32.9,30.22,WNW,289,0.0,1.0,75,0.00,,---,0.00,VWS V14.01,2013-04-25 11:12:00,
2013-04-25 07:17:00,40.3,33.3,30.22,West,264,1.0,1.0,76,0.00,,---,0.00,VWS V14.01,2013-04-25 11:17:00,
2013-04-25 07:22:00,40.3,33.3,30.22,NW,308,0.0,0.0,76,0.00,,---,0.00,VWS V14.01,2013-04-25 11:22:00,
2013-04-25 07:27:00,40.3,33.0,30.23,SW,236,0.0,0.0,75,0.00,,---,0.00,VWS V14.01,2013-04-25 11:27:00,
2013-04-25 07:32:00,40.4,34.1,30.23,SSW,203,0.0,0.0,78,0.00,,---,0.00,VWS V14.01,2013-04-25 11:32:00,
2013-04-25 07:37:00,40.4,33.5,30.24,North,3,0.0,0.0,76,0.00,,---,0.00,VWS V14.01,2013-04-25 11:37:00,
2013-04-25 07:42:00,40.4,32.8,30.24,NNE,23,0.0,1.0,74,0.00,,---,0.00,VWS V14.01,2013-04-25 11:42:00,
2013-04-25 07:47:00,40.4,33.5,30.24,NNE,23,0.0,0.0,76,0.00,,---,0.00,VWS V14.01,2013-04-25 11:47:00,
2013-04-25 07:52:00,40.4,33.5,30.24,North,353,0.0,1.0,76,0.00,,---,0.00,VWS V14.01,2013-04-25 11:52:00,
2013-04-25 07:57:00,40.6,33.6,30.24,NW,308,0.0,0.0,76,0.00,,---,0.00,VWS V14.01,2013-04-25 11:57:00,
2013-04-25 08:03:00,40.9,34.3,30.24,NNE,20,0.0,1.0,77,0.00,,---,0.00,VWS V14.01,2013-04-25 12:03:00,
2013-04-25 08:08:00,41.2,33.9,30.25,SSE,150,0.0,0.0,75,0.00,,---,0.00,VWS V14.01,2013-04-25 12:08:00,
2013-04-25 08:13:00,41.2,33.2,30.25,WSW,246,0.0,1.0,73,0.00,,---,0.00,VWS V14.01,2013-04-25 12:13:00,
2013-04-25 08:18:00,41.3,33.3,30.25,NW,325,0.0,0.0,73,0.00,,---,0.00,VWS V14.01,2013-04-25 12:18:00,
2013-04-25 08:23:00,41.7,33.7,30.25,NNE,18,1.0,1.0,73,0.00,,---,0.00,VWS V14.01,2013-04-25 12:23:00,
2013-04-25 08:28:00,42.4,34.0,30.25,NW,326,1.0,1.0,72,0.00,,---,0.00,VWS V14.01,2013-04-25 12:28:00,
2013-04-25 08:33:00,42.8,33.3,30.25,NNW,333,0.0,1.0,69,0.00,,---,0.00,VWS V14.01,2013-04-25 12:33:00,
2013-04-25 08:38:00,43.2,33.0,30.25,WNW,302,0.0,1.0,67,0.00,,---,0.00,VWS V14.01,2013-04-25 12:38:00,
2013-04-25 08:43:00,43.5,32.2,30.26,North,8,1.0,2.0,64,0.00,,---,0.00,VWS V14.01,2013-04-25 12:43:00,
2013-04-25 08:48:00,43.8,33.2,30.26,NNW,339,1.0,1.0,66,0.00,,---,0.00,VWS V14.01,2013-04-25 12:48:00,
2013-04-25 08:53:00,44.5,33.5,30.26,NE,34,0.0,0.0,65,0.00,,---,0.00,VWS V14.01,2013-04-25 12:53:00,
2013-04-25 08:59:00,44.8,32.6,30.26,North,8,1.0,1.0,62,0.00,,---,0.00,VWS V14.01,2013-04-25 12:59:00,
2013-04-25 09:04:00,45.2,33.4,30.25,NE,50,2.0,2.0,63,0.00,,---,0.00,VWS V14.01,2013-04-25 13:04:00,
2013-04-25 09:09:00,45.5,33.7,30.25,WNW,285,0.0,1.0,63,0.00,,---,0.00,VWS V14.01,2013-04-25 13:09:00,
2013-04-25 09:14:00,45.2,33.0,30.26,East,84,0.0,1.0,62,0.00,,---,0.00,VWS V14.01,2013-04-25 13:14:00,
2013-04-25 09:19:00,45.0,33.6,30.26,North,355,0.0,0.0,64,0.00,,---,0.00,VWS V14.01,2013-04-25 13:19:00,
2013-04-25 09:24:00,45.3,32.7,30.26,SW,218,2.0,2.0,61,0.00,,---,0.00,VWS V14.01,2013-04-25 13:24:00,
2013-04-25 09:29:00,45.5,32.8,30.26,NNW,337,0.0,4.0,61,0.00,,---,0.00,VWS V14.01,2013-04-25 13:29:00,
2013-04-25 09:34:00,45.8,33.1,30.26,NW,323,0.0,2.0,61,0.00,,---,0.00,VWS V14.01,2013-04-25 13:34:00,
2013-04-25 09:40:00,45.9,32.8,30.26,NNE,20,1.0,1.0,60,0.00,,---,0.00,VWS V14.01,2013-04-25 13:40:00,
2013-04-25 09:45:00,45.7,33.0,30.26,West,264,0.0,1.0,61,0.00,,---,0.00,VWS V14.01,2013-04-25 13:45:00,
2013-04-25 09:50:00,45.9,32.4,30.26,NW,320,0.0,3.0,59,0.00,,---,0.00,VWS V14.01,2013-04-25 13:50:00,
2013-04-25 09:55:00,46.3,32.8,30.26,NE,41,0.0,1.0,59,0.00,,---,0.00,VWS V14.01,2013-04-25 13:55:00,
2013-04-25 10:00:00,46.6,32.2,30.26,NE,49,0.0,2.0,57,0.00,,---,0.00,VWS V14.01,2013-04-25 14:00:00,
2013-04-25 10:05:00,46.8,34.1,30.26,NNW,343,0.0,1.0,61,0.00,,---,0.00,VWS V14.01,2013-04-25 14:05:00,
2013-04-25 10:10:00,47.1,32.2,30.26,ENE,77,2.0,2.0,56,0.00,,---,0.00,VWS V14.01,2013-04-25 14:10:00,
2013-04-25 10:15:00,47.3,33.3,30.26,North,4,0.0,1.0,58,0.00,,---,0.00,VWS V14.01,2013-04-25 14:15:00,
2013-04-25 10:20:00,47.7,32.3,30.27,NNE,30,2.0,3.0,55,0.00,,---,0.00,VWS V14.01,2013-04-25 14:20:00,
2013-04-25 10:26:00,47.5,33.0,30.26,NNW,347,1.0,1.0,57,0.00,,---,0.00,VWS V14.01,2013-04-25 14:26:00,
2013-04-25 10:31:00,47.3,33.3,30.27,NNW,345,0.0,1.0,58,0.00,,---,0.00,VWS V14.01,2013-04-25 14:31:00,
2013-04-25 10:36:00,47.7,33.7,30.26,NNW,337,0.0,1.0,58,0.00,,---,0.00,VWS V14.01,2013-04-25 14:36:00,
2013-04-25 10:41:00,48.8,34.3,30.26,WSW,246,2.0,3.0,57,0.00,,---,0.00,VWS V14.01,2013-04-25 14:41:00,
2013-04-25 10:46:00,48.8,34.7,30.27,ENE,72,0.0,1.0,58,0.00,,---,0.00,VWS V14.01,2013-04-25 14:46:00,
2013-04-25 10:51:00,48.9,33.5,30.26,NE,38,1.0,2.0,55,0.00,,---,0.00,VWS V14.01,2013-04-25 14:51:00,
2013-04-25 10:56:00,49.0,34.0,30.26,NNW,346,0.0,2.0,56,0.00,,---,0.00,VWS V14.01,2013-04-25 14:56:00,
2013-04-25 11:01:00,49.7,33.3,30.26,NW,312,0.0,2.0,53,0.00,,---,0.00,VWS V14.01,2013-04-25 15:01:00,
2013-04-25 11:06:00,50.0,33.6,30.27,NW,326,2.0,3.0,53,0.00,,---,0.00,VWS V14.01,2013-04-25 15:06:00,
2013-04-25 11:11:00,50.0,32.6,30.27,WNW,297,1.0,3.0,51,0.00,,---,0.00,VWS V14.01,2013-04-25 15:11:00,
2013-04-25 11:16:00,50.0,33.1,30.27,NNW,340,1.0,3.0,52,0.00,,---,0.00,VWS V14.01,2013-04-25 15:16:00,
2013-04-25 11:21:00,50.2,32.3,30.27,SSW,210,0.0,4.0,50,0.00,,---,0.00,VWS V14.01,2013-04-25 15:21:00,
2013-04-25 11:26:00,50.5,32.1,30.27,North,5,1.0,4.0,49,0.00,,---,0.00,VWS V14.01,2013-04-25 15:26:00,
2013-04-25 11:32:00,50.4,32.5,30.26,North,360,0.0,1.0,50,0.00,,---,0.00,VWS V14.01,2013-04-25 15:32:00,
2013-04-25 11:37:00,50.7,32.2,30.26,NNE,16,1.0,1.0,49,0.00,,---,0.00,VWS V14.01,2013-04-25 15:37:00,
2013-04-25 11:42:00,51.2,33.2,30.26,ESE,121,0.0,1.0,50,0.00,,---,0.00,VWS V14.01,2013-04-25 15:42:00,
2013-04-25 11:47:00,51.9,32.3,30.26,North,1,1.0,4.0,47,0.00,,---,0.00,VWS V14.01,2013-04-25 15:47:00,
2013-04-25 11:52:00,52.2,32.6,30.26,WNW,291,0.0,2.0,47,0.00,,---,0.00,VWS V14.01,2013-04-25 15:52:00,
2013-04-25 11:57:00,52.2,32.1,30.26,SSW,204,0.0,2.0,46,0.00,,---,0.00,VWS V14.01,2013-04-25 15:57:00,
2013-04-25 12:02:00,52.4,32.8,30.25,SE,132,1.0,2.0,47,0.00,,---,0.00,VWS V14.01,2013-04-25 16:02:00,
2013-04-25 12:07:00,52.8,32.1,30.26,NNE,25,0.0,3.0,45,0.00,,---,0.00,VWS V14.01,2013-04-25 16:07:00,
2013-04-25 12:12:00,52.8,32.1,30.25,WSW,255,3.0,3.0,45,0.00,,---,0.00,VWS V14.01,2013-04-25 16:12:00,
2013-04-25 12:17:00,53.0,31.7,30.25,NW,304,0.0,3.0,44,0.00,,---,0.00,VWS V14.01,2013-04-25 16:17:00,
2013-04-25 12:22:00,53.9,31.9,30.25,West,276,0.0,2.0,43,0.00,,---,0.00,VWS V14.01,2013-04-25 16:22:00,
2013-04-25 12:27:00,54.3,32.9,30.25,NE,41,3.0,4.0,44,0.00,,---,0.00,VWS V14.01,2013-04-25 16:27:00,
2013-04-25 12:32:00,54.2,32.2,30.25,NNE,13,1.0,3.0,43,0.00,,---,0.00,VWS V14.01,2013-04-25 16:32:00,
2013-04-25 12:37:00,54.5,31.3,30.25,NE,37,2.0,3.0,41,0.00,,---,0.00,VWS V14.01,2013-04-25 16:37:00,
2013-04-25 12:42:00,54.6,31.4,30.25,North,8,0.0,1.0,41,0.00,,---,0.00,VWS V14.01,2013-04-25 16:42:00,
2013-04-25 12:47:00,55.4,32.7,30.25,NE,50,2.0,2.0,42,0.00,,---,0.00,VWS V14.01,2013-04-25 16:47:00,
2013-04-25 12:52:00,55.9,32.6,30.24,SSE,159,0.0,1.0,41,0.00,,---,0.00,VWS V14.01,2013-04-25 16:52:00,
2013-04-25 12:58:00,56.0,32.0,30.24,NNW,342,3.0,3.0,40,0.00,,---,0.00,VWS V14.01,2013-04-25 16:58:00,
2013-04-25 13:03:00,56.0,31.4,30.24,South,174,0.0,1.0,39,0.00,,---,0.00,VWS V14.01,2013-04-25 17:03:00,
2013-04-25 13:08:00,56.5,30.6,30.24,NE,39,1.0,2.0,37,0.00,,---,0.00,VWS V14.01,2013-04-25 17:08:00,
2013-04-25 13:13:00,56.9,32.2,30.24,NE,37,2.0,3.0,39,0.00,,---,0.00,VWS V14.01,2013-04-25 17:13:00,
2013-04-25 13:18:00,56.7,32.0,30.24,NE,56,3.0,3.0,39,0.00,,---,0.00,VWS V14.01,2013-04-25 17:18:00,
2013-04-25 13:23:00,56.9,30.9,30.24,NNW,338,0.0,3.0,37,0.00,,---,0.00,VWS V14.01,2013-04-25 17:23:00,
2013-04-25 13:28:00,56.6,30.6,30.24,SW,236,1.0,2.0,37,0.00,,---,0.00,VWS V14.01,2013-04-25 17:28:00,
2013-04-25 13:33:00,56.5,31.2,30.24,NE,53,2.0,2.0,38,0.00,,---,0.00,VWS V14.01,2013-04-25 17:33:00,
2013-04-25 13:38:00,56.1,31.5,30.24,WSW,239,1.0,1.0,39,0.00,,---,0.00,VWS V14.01,2013-04-25 17:38:00,
2013-04-25 13:43:00,56.4,31.1,30.24,NNE,30,0.0,5.0,38,0.00,,---,0.00,VWS V14.01,2013-04-25 17:43:00,
2013-04-25 13:48:00,56.7,34.5,30.24,NE,53,0.0,1.0,43,0.00,,---,0.00,VWS V14.01,2013-04-25 17:48:00,
2013-04-25 13:53:00,57.1,31.1,30.24,WNW,293,1.0,3.0,37,0.00,,---,0.00,VWS V14.01,2013-04-25 17:53:00,
2013-04-25 13:58:00,57.1,32.4,30.24,ENE,63,0.0,0.0,39,0.00,,---,0.00,VWS V14.01,2013-04-25 17:58:00,
2013-04-25 14:04:00,57.8,31.7,30.23,South,176,1.0,1.0,37,0.00,,---,0.00,VWS V14.01,2013-04-25 18:04:00,
2013-04-25 14:09:00,58.5,33.0,30.23,SSW,208,3.0,4.0,38,0.00,,---,0.00,VWS V14.01,2013-04-25 18:09:00,
2013-04-25 14:14:00,58.1,31.3,30.23,North,356,0.0,1.0,36,0.00,,---,0.00,VWS V14.01,2013-04-25 18:14:00,
2013-04-25 14:19:00,58.6,31.8,30.23,NNW,342,0.0,2.0,36,0.00,,---,0.00,VWS V14.01,2013-04-25 18:19:00,
2013-04-25 14:24:00,58.1,32.0,30.23,SE,134,0.0,0.0,37,0.00,,---,0.00,VWS V14.01,2013-04-25 18:24:00,
2013-04-25 14:29:00,58.5,33.7,30.23,WSW,257,0.0,2.0,39,0.00,,---,0.00,VWS V14.01,2013-04-25 18:29:00,
2013-04-25 14:34:00,58.7,33.8,30.23,South,176,0.0,1.0,39,0.00,,---,0.00,VWS V14.01,2013-04-25 18:34:00,
2013-04-25 14:39:00,59.0,33.5,30.23,ENE,64,1.0,3.0,38,0.00,,---,0.00,VWS V14.01,2013-04-25 18:39:00,
2013-04-25 14:44:00,58.8,32.6,30.23,East,79,1.0,3.0,37,0.00,,---,0.00,VWS V14.01,2013-04-25 18:44:00,
2013-04-25 14:49:00,58.8,33.9,30.23,NE,49,0.0,2.0,39,0.00,,---,0.00,VWS V14.01,2013-04-25 18:49:00,
2013-04-25 14:54:00,59.1,32.9,30.23,SSW,197,0.0,1.0,37,0.00,,---,0.00,VWS V14.01,2013-04-25 18:54:00,
2013-04-25 15:00:00,58.7,31.8,30.22,NNE,18,2.0,3.0,36,0.00,,---,0.00,VWS V14.01,2013-04-25 19:00:00,
2013-04-25 15:05:00,58.9,32.7,30.22,NE,39,0.0,0.0,37,0.00,,---,0.00,VWS V14.01,2013-04-25 19:05:00,
2013-04-25 15:10:00,59.0,30.7,30.21,North,1,2.0,4.0,34,0.00,,---,0.00,VWS V14.01,2013-04-25 19:10:00,
2013-04-25 15:15:00,58.2,30.7,30.21,SSE,165,1.0,1.0,35,0.00,,---,0.00,VWS V14.01,2013-04-25 19:15:00,
2013-04-25 15:20:00,58.1,29.9,30.21,NNW,343,3.0,3.0,34,0.00,,---,0.00,VWS V14.01,2013-04-25 19:20:00,
2013-04-25 15:25:00,58.0,30.5,30.21,SSE,153,0.0,2.0,35,0.00,,---,0.00,VWS V14.01,2013-04-25 19:25:00,
2013-04-25 15:30:00,58.4,30.9,30.21,North,9,0.0,2.0,35,0.00,,---,0.00,VWS V14.01,2013-04-25 19:30:00,
2013-04-25 15:35:00,58.7,32.5,30.20,ESE,115,0.0,2.0,37,0.00,,---,0.00,VWS V14.01,2013-04-25 19:35:00,
2013-04-25 15:40:00,59.1,30.0,30.20,East,101,1.0,2.0,33,0.00,,---,0.00,VWS V14.01,2013-04-25 19:40:00,
2013-04-25 15:45:00,59.5,30.4,30.20,WNW,294,1.0,1.0,33,0.00,,---,0.00,VWS V14.01,2013-04-25 19:45:00,
2013-04-25 15:50:00,59.2,28.6,30.20,NNW,340,0.0,0.0,31,0.00,,---,0.00,VWS V14.01,2013-04-25 19:50:00,
2013-04-25 15:56:00,59.5,30.4,30.20,NW,312,0.0,0.0,33,0.00,,---,0.00,VWS V14.01,2013-04-25 19:56:00,
2013-04-25 16:01:00,59.7,30.6,30.20,NNE,27,1.0,2.0,33,0.00,,---,0.00,VWS V14.01,2013-04-25 20:01:00,
2013-04-25 16:06:00,59.5,31.1,30.20,SW,214,0.0,1.0,34,0.00,,---,0.00,VWS V14.01,2013-04-25 20:06:00,
2013-04-25 16:11:00,59.7,32.0,30.20,SW,214,1.0,2.0,35,0.00,,---,0.00,VWS V14.01,2013-04-25 20:11:00,
2013-04-25 16:16:00,60.1,30.9,30.19,WNW,293,1.0,1.0,33,0.00,,---,0.00,VWS V14.01,2013-04-25 20:16:00,
2013-04-25 16:21:00,60.4,31.2,30.19,SSW,202,0.0,0.0,33,0.00,,---,0.00,VWS V14.01,2013-04-25 20:21:00,
2013-04-25 16:26:00,60.3,28.8,30.19,West,280,0.0,0.0,30,0.00,,---,0.00,VWS V14.01,2013-04-25 20:26:00,
2013-04-25 16:31:00,60.2,31.8,30.19,SE,134,1.0,1.0,34,0.00,,---,0.00,VWS V14.01,2013-04-25 20:31:00,
2013-04-25 16:36:00,60.4,30.4,30.19,NNW,328,0.0,2.0,32,0.00,,---,0.00,VWS V14.01,2013-04-25 20:36:00,
2013-04-25 16:41:00,60.9,30.9,30.19,NE,41,1.0,1.0,32,0.00,,---,0.00,VWS V14.01,2013-04-25 20:41:00,
2013-04-25 16:46:00,60.8,30.0,30.19,North,356,1.0,1.0,31,0.00,,---,0.00,VWS V14.01,2013-04-25 20:46:00,
2013-04-25 16:51:00,60.8,30.0,30.19,East,94,1.0,3.0,31,0.00,,---,0.00,VWS V14.01,2013-04-25 20:51:00,
2013-04-25 16:56:00,60.5,30.5,30.19,SSE,156,0.0,1.0,32,0.00,,---,0.00,VWS V14.01,2013-04-25 20:56:00,
2013-04-25 17:01:00,60.7,30.7,30.19,SSE,166,1.0,2.0,32,0.00,,---,0.00,VWS V14.01,2013-04-25 21:01:00,
2013-04-25 17:06:00,60.6,31.4,30.19,SE,141,0.0,1.0,33,0.00,,---,0.00,VWS V14.01,2013-04-25 21:06:00,
2013-04-25 17:11:00,60.7,29.9,30.19,ESE,102,1.0,2.0,31,0.00,,---,0.00,VWS V14.01,2013-04-25 21:11:00,
2013-04-25 17:17:00,60.3,29.6,30.19,ESE,103,0.0,2.0,31,0.00,,---,0.00,VWS V14.01,2013-04-25 21:17:00,
2013-04-25 17:22:00,60.0,31.6,30.19,SSE,166,0.0,0.0,34,0.00,,---,0.00,VWS V14.01,2013-04-25 21:22:00,
2013-04-25 17:27:00,60.4,31.2,30.19,WNW,287,0.0,1.0,33,0.00,,---,0.00,VWS V14.01,2013-04-25 21:27:00,
2013-04-25 17:32:00,61.0,30.2,30.19,NNW,341,0.0,1.0,31,0.00,,---,0.00,VWS V14.01,2013-04-25 21:32:00,
2013-04-25 17:37:00,60.8,31.5,30.19,West,259,0.0,1.0,33,0.00,,---,0.00,VWS V14.01,2013-04-25 21:37:00,
2013-04-25 17:42:00,60.3,31.1,30.19,SE,132,0.0,1.0,33,0.00,,---,0.00,VWS V14.01,2013-04-25 21:42:00,
2013-04-25 17:48:00,59.5,29.6,30.19,East,83,0.0,0.0,32,0.00,,---,0.00,VWS V14.01,2013-04-25 21:48:00,
2013-04-25 17:53:00,59.4,29.6,30.19,NNW,333,0.0,0.0,32,0.00,,---,0.00,VWS V14.01,2013-04-25 21:53:00,
2013-04-25 17:58:00,59.3,31.7,30.19,ESE,118,0.0,0.0,35,0.00,,---,0.00,VWS V14.01,2013-04-25 21:58:00,
2013-04-25 18:03:00,59.0,31.4,30.19,NW,311,1.0,1.0,35,0.00,,---,0.00,VWS V14.01,2013-04-25 22:03:00,
2013-04-25 18:08:00,58.8,31.2,30.19,NNE,26,1.0,1.0,35,0.00,,---,0.00,VWS V14.01,2013-04-25 22:08:00,
2013-04-25 18:13:00,58.5,31.7,30.19,East,97,0.0,0.0,36,0.00,,---,0.00,VWS V14.01,2013-04-25 22:13:00,
2013-04-25 18:18:00,58.2,32.1,30.19,ESE,119,0.0,1.0,37,0.00,,---,0.00,VWS V14.01,2013-04-25 22:18:00,
2013-04-25 18:23:00,57.9,29.7,30.19,NNW,342,0.0,1.0,34,0.00,,---,0.00,VWS V14.01,2013-04-25 22:23:00,
2013-04-25 18:28:00,57.8,31.0,30.19,SSE,150,0.0,0.0,36,0.00,,---,0.00,VWS V14.01,2013-04-25 22:28:00,
2013-04-25 18:34:00,57.6,30.9,30.19,SSE,152,0.0,0.0,36,0.00,,---,0.00,VWS V14.01,2013-04-25 22:34:00,
2013-04-25 18:39:00,57.4,31.4,30.19,ESE,108,0.0,0.0,37,0.00,,---,0.00,VWS V14.01,2013-04-25 22:39:00,
2013-04-25 18:44:00,57.2,31.2,30.19,ESE,108,0.0,1.0,37,0.00,,---,0.00,VWS V14.01,2013-04-25 22:44:00,
2013-04-25 18:49:00,57.1,30.4,30.19,ENE,78,0.0,0.0,36,0.00,,---,0.00,VWS V14.01,2013-04-25 22:49:00,
2013-04-25 18:54:00,56.9,30.9,30.19,East,79,0.0,0.0,37,0.00,,---,0.00,VWS V14.01,2013-04-25 22:54:00,
2013-04-25 18:59:00,56.6,30.6,30.19,East,79,0.0,0.0,37,0.00,,---,0.00,VWS V14.01,2013-04-25 22:59:00,
2013-04-25 19:04:00,56.3,30.4,30.19,East,79,0.0,0.0,37,0.00,,---,0.00,VWS V14.01,2013-04-25 23:04:00,
2013-04-25 19:09:00,56.0,30.1,30.19,ENE,78,0.0,0.0,37,0.00,,---,0.00,VWS V14.01,2013-04-25 23:09:00,
2013-04-25 19:14:00,55.9,30.7,30.19,East,79,0.0,0.0,38,0.00,,---,0.00,VWS V14.01,2013-04-25 23:14:00,
2013-04-25 19:20:00,55.8,29.9,30.19,ESE,105,0.0,0.0,37,0.00,,---,0.00,VWS V14.01,2013-04-25 23:20:00,
2013-04-25 19:25:00,55.6,30.4,30.19,ESE,104,0.0,0.0,38,0.00,,---,0.00,VWS V14.01,2013-04-25 23:25:00,
2013-04-25 19:30:00,55.5,31.0,30.19,ESE,104,0.0,0.0,39,0.00,,---,0.00,VWS V14.01,2013-04-25 23:30:00,
2013-04-25 19:35:00,55.2,31.3,30.19,ESE,104,0.0,0.0,40,0.00,,---,0.00,VWS V14.01,2013-04-25 23:35:00,
2013-04-25 19:40:00,54.8,31.0,30.20,ESE,105,0.0,0.0,40,0.00,,---,0.00,VWS V14.01,2013-04-25 23:40:00,
2013-04-25 19:45:00,54.5,31.3,30.20,ESE,105,0.0,0.0,41,0.00,,---,0.00,VWS V14.01,2013-04-25 23:45:00,
2013-04-25 19:50:00,54.2,31.6,30.20,ESE,105,0.0,0.0,42,0.00,,---,0.00,VWS V14.01,2013-04-25 23:50:00,
2013-04-25 19:55:00,53.8,31.3,30.20,SE,129,0.0,0.0,42,0.00,,---,0.00,VWS V14.01,2013-04-25 23:55:00,
2013-04-25 20:00:00,53.7,31.8,30.20,SE,131,0.0,1.0,43,0.00,,---,0.00,VWS V14.01,2013-04-26 00:00:00,
2013-04-25 20:05:00,53.5,32.1,30.21,SE,131,0.0,0.0,44,0.00,,---,0.00,VWS V14.01,2013-04-26 00:05:00,
2013-04-25 20:10:00,53.2,31.9,30.21,SSE,149,0.0,0.0,44,0.00,,---,0.00,VWS V14.01,2013-04-26 00:10:00,
2013-04-25 20:16:00,53.0,32.2,30.21,SSE,150,0.0,0.0,45,0.00,,---,0.00,VWS V14.01,2013-04-26 00:16:00,
2013-04-25 20:21:00,52.9,32.2,30.21,SSE,150,0.0,0.0,45,0.00,,---,0.00,VWS V14.01,2013-04-26 00:21:00,
2013-04-25 20:26:00,52.7,32.5,30.21,SSE,149,0.0,0.0,46,0.00,,---,0.00,VWS V14.01,2013-04-26 00:26:00,
2013-04-25 20:31:00,52.5,32.3,30.22,SSE,149,0.0,0.0,46,0.00,,---,0.00,VWS V14.01,2013-04-26 00:31:00,
2013-04-25 20:36:00,52.4,32.8,30.22,SSE,153,0.0,0.0,47,0.00,,---,0.00,VWS V14.01,2013-04-26 00:36:00,
2013-04-25 20:41:00,52.3,32.7,30.22,SSE,153,0.0,0.0,47,0.00,,---,0.00,VWS V14.01,2013-04-26 00:41:00,
2013-04-25 20:46:00,52.2,32.1,30.22,SSE,165,0.0,0.0,46,0.00,,---,0.00,VWS V14.01,2013-04-26 00:46:00,
2013-04-25 20:51:00,52.2,32.6,30.23,South,189,0.0,0.0,47,0.00,,---,0.00,VWS V14.01,2013-04-26 00:51:00,
2013-04-25 20:56:00,52.2,32.1,30.23,SW,221,0.0,0.0,46,0.00,,---,0.00,VWS V14.01,2013-04-26 00:56:00,
2013-04-25 21:01:00,52.2,32.1,30.23,SW,221,0.0,0.0,46,0.00,,---,0.00,VWS V14.01,2013-04-26 01:01:00,
2013-04-25 21:06:00,52.2,31.5,30.24,SW,218,0.0,0.0,45,0.00,,---,0.00,VWS V14.01,2013-04-26 01:06:00,
2013-04-25 21:11:00,52.2,32.1,30.24,SW,221,0.0,0.0,46,0.00,,---,0.00,VWS V14.01,2013-04-26 01:11:00,
2013-04-25 21:16:00,52.1,32.0,30.25,SW,225,0.0,0.0,46,0.00,,---,0.00,VWS V14.01,2013-04-26 01:16:00,
2013-04-25 21:21:00,51.8,31.7,30.25,SW,225,0.0,0.0,46,0.00,,---,0.00,VWS V14.01,2013-04-26 01:21:00,
2013-04-25 21:26:00,51.9,31.2,30.25,West,259,0.0,0.0,45,0.00,,---,0.00,VWS V14.01,2013-04-26 01:26:00,
2013-04-25 21:31:00,51.9,31.2,30.26,West,260,0.0,0.0,45,0.00,,---,0.00,VWS V14.01,2013-04-26 01:31:00,
2013-04-25 21:36:00,51.9,31.2,30.27,West,268,1.0,2.0,45,0.00,,---,0.00,VWS V14.01,2013-04-26 01:36:00,
2013-04-25 21:41:00,51.6,31.0,30.27,WNW,283,1.0,1.0,45,0.00,,---,0.00,VWS V14.01,2013-04-26 01:41:00,
2013-04-25 21:46:00,51.6,31.5,30.28,West,270,0.0,0.0,46,0.00,,---,0.00,VWS V14.01,2013-04-26 01:46:00,
2013-04-25 21:51:00,51.6,31.5,30.29,West,270,0.0,0.0,46,0.00,,---,0.00,VWS V14.01,2013-04-26 01:51:00,
2013-04-25 21:56:00,51.6,32.0,30.29,West,270,0.0,0.0,47,0.00,,---,0.00,VWS V14.01,2013-04-26 01:56:00,
2013-04-25 22:01:00,51.6,31.5,30.29,West,267,0.0,0.0,46,0.00,,---,0.00,VWS V14.01,2013-04-26 02:01:00,
2013-04-25 22:07:00,51.8,32.2,30.29,West,266,0.0,0.0,47,0.00,,---,0.00,VWS V14.01,2013-04-26 02:07:00,
2013-04-25 22:12:00,51.9,30.7,30.29,West,266,0.0,0.0,44,0.00,,---,0.00,VWS V14.01,2013-04-26 02:12:00,
2013-04-25 22:17:00,51.9,30.7,30.30,West,266,0.0,0.0,44,0.00,,---,0.00,VWS V14.01,2013-04-26 02:17:00,
2013-04-25 22:22:00,51.7,29.9,30.30,WSW,245,0.0,1.0,43,0.00,,---,0.00,VWS V14.01,2013-04-26 02:22:00,
2013-04-25 22:27:00,51.7,29.4,30.30,WSW,245,0.0,0.0,42,0.00,,---,0.00,VWS V14.01,2013-04-26 02:27:00,
2013-04-25 22:32:00,51.8,29.5,30.30,WSW,245,0.0,0.0,42,0.00,,---,0.00,VWS V14.01,2013-04-26 02:32:00,
2013-04-25 22:37:00,51.6,28.7,30.30,WSW,245,0.0,0.0,41,0.00,,---,0.00,VWS V14.01,2013-04-26 02:37:00,
2013-04-25 22:42:00,51.6,28.7,30.30,WSW,245,0.0,0.0,41,0.00,,---,0.00,VWS V14.01,2013-04-26 02:42:00,
2013-04-25 22:47:00,51.4,28.5,30.30,WSW,245,0.0,0.0,41,0.00,,---,0.00,VWS V14.01,2013-04-26 02:47:00,
2013-04-25 22:52:00,51.2,28.3,30.30,WSW,245,0.0,0.0,41,0.00,,---,0.00,VWS V14.01,2013-04-26 02:52:00,
2013-04-25 22:57:00,50.9,28.6,30.30,WSW,245,0.0,0.0,42,0.00,,---,0.00,VWS V14.01,2013-04-26 02:57:00,
2013-04-25 23:02:00,50.6,28.4,30.30,WSW,245,0.0,0.0,42,0.00,,---,0.00,VWS V14.01,2013-04-26 03:02:00,
2013-04-25 23:07:00,50.4,28.8,30.31,WSW,245,0.0,1.0,43,0.00,,---,0.00,VWS V14.01,2013-04-26 03:07:00,
2013-04-25 23:12:00,50.1,28.5,30.31,West,262,0.0,1.0,43,0.00,,---,0.00,VWS V14.01,2013-04-26 03:12:00,
2013-04-25 23:17:00,50.1,28.5,30.31,West,262,0.0,1.0,43,0.00,,---,0.00,VWS V14.01,2013-04-26 03:17:00,
2013-04-25 23:22:00,50.1,28.5,30.31,West,262,0.0,1.0,43,0.00,,---,0.00,VWS V14.01,2013-04-26 03:22:00,
2013-04-25 23:27:00,50.3,28.7,30.31,West,262,0.0,1.0,43,0.00,,---,0.00,VWS V14.01,2013-04-26 03:27:00,
2013-04-25 23:32:00,50.4,28.2,30.31,West,263,0.0,1.0,42,0.00,,---,0.00,VWS V14.01,2013-04-26 03:32:00,
2013-04-25 23:38:00,50.6,27.8,30.31,West,263,0.0,1.0,41,0.00,,---,0.00,VWS V14.01,2013-04-26 03:38:00,
2013-04-25 23:43:00,50.9,28.1,30.31,West,263,0.0,0.0,41,0.00,,---,0.00,VWS V14.01,2013-04-26 03:43:00,
2013-04-25 23:48:00,51.1,28.2,30.31,West,262,0.0,1.0,41,0.00,,---,0.00,VWS V14.01,2013-04-26 03:48:00,
2013-04-25 23:53:00,51.1,27.6,30.31,West,262,0.0,1.0,40,0.00,,---,0.00,VWS V14.01,2013-04-26 03:53:00,
2013-04-25 23:58:00,51.3,28.4,30.31,West,263,0.0,1.0,41,0.00,,---,0.00,VWS V14.01,2013-04-26 03:58:00,